This is the latest recevied weather packets stored in our database for station/object IK2ILW-4. If no packets are shown the sender has not sent any weather packets the latest 10 day(s).
| Time | Temp. | Humidity | Pressure | Rain* | Wind** | Luminosity | Snow |
|---|---|---|---|---|---|---|---|
| 1778136465 | 6.67° C | 91% | 1013.4 hPa | 2.03 mm | - | 441 W/m² | - |
| 1778136161 | 6.67° C | 91% | 1013.4 hPa | 2.03 mm | - | 420 W/m² | - |
| 1778135860 | 6.67° C | 88% | 1013.4 hPa | 2.03 mm | - | 276 W/m² | - |
| 1778135560 | 6.67° C | 87% | 1013.4 hPa | 2.03 mm | - | 193 W/m² | - |
| 1778135259 | 6.67° C | 85% | 1013.4 hPa | 2.03 mm | - | 130 W/m² | - |
| 1778134955 | 7.22° C | 85% | 1013.4 hPa | 2.03 mm | - | 186 W/m² | - |
| 1778134671 | 6.67° C | 90% | 1013.4 hPa | 2.03 mm | - | 359 W/m² | - |
| 1778134366 | 6.67° C | 87% | 1013.3 hPa | 2.03 mm | - | 279 W/m² | - |
| 1778134063 | 6.67° C | 86% | 1013.3 hPa | 2.03 mm | - | 127 W/m² | - |
| 1778133763 | 6.11° C | 87% | 1013.3 hPa | 2.03 mm | - | 204 W/m² | - |
| 1778133465 | 6.11° C | 87% | 1012.4 hPa | 2.03 mm | - | 144 W/m² | - |
| 1778133161 | 6.11° C | 89% | 1012.4 hPa | 2.03 mm | - | 269 W/m² | - |
| 1778132861 | 5.56° C | 93% | 1012.4 hPa | 2.03 mm | - | 371 W/m² | - |
| 1778132559 | 5° C | 95% | 1012.3 hPa | 2.03 mm | - | 332 W/m² | - |
| 1778132255 | 4.44° C | 96% | 1012.3 hPa | 2.03 mm | - | 134 W/m² | - |
| 1778131954 | 4.44° C | 96% | 1012.3 hPa | 2.03 mm | - | 90 W/m² | - |
| 1778131651 | 3.89° C | 97% | 1012.1 hPa | 2.03 mm | - | 62 W/m² | - |
| 1778131351 | 3.89° C | 97% | 1012.1 hPa | 2.03 mm | - | 62 W/m² | - |
| 1778131050 | 3.89° C | 96% | 1012.1 hPa | 2.03 mm | - | 77 W/m² | - |
| 1778130750 | 3.89° C | 96% | 1012 hPa | 2.03 mm | - | 69 W/m² | - |
| 1778130467 | 3.89° C | 96% | 1012 hPa | 2.03 mm | - | 46 W/m² | - |
| 1778130163 | 3.89° C | 96% | 1012 hPa | 2.03 mm | - | 28 W/m² | - |
| 1778129860 | 3.89° C | 95% | 1011.9 hPa | 2.03 mm | - | 35 W/m² | - |
| 1778129560 | 4.44° C | 93% | 1011.9 hPa | 2.03 mm | - | 39 W/m² | - |
| 1778129263 | 5° C | 92% | 1011.9 hPa | 2.03 mm | - | 42 W/m² | - |
* Rain since midnight (hover to see other rain measurements)
** Current wind speed in m/s (hover to see current wind gust speed)